Superior, WI

4:15 AM CDT on August 17, 2017 (GMT -0500)
Bong

Weather History for KSUW - June, 2013

Change the Weather History Date:

Friday, June 14, 2013

  Actual Average Record
Temperature  
Mean Temperature 50 °F -  
Max Temperature 59 °F 66 °F 90 °F (1952)
Min Temperature 42 °F 48 °F 28 °F (1958)
Degree Days  
Heating Degree Days 14    
Moisture  
Dew Point 44 °F    
Average Humidity 78    
Maximum Humidity 99    
Minimum Humidity 61    
Precipitation  
Precipitation 0.00 in - - ()
Sea Level Pressure  
Sea Level Pressure 30.08 in    
Wind  
Wind Speed 5 mph (ENE)    
Max Wind Speed 15 mph    
Max Gust Speed 23 mph    
Visibility 10 miles    
Events      
Averages and records for this station are not official NWS values.
T = Trace of Precipitation, MM = Missing Value Source: NWS Daily Summary

Daily Weather History Graph

Daily Weather History Graph

Search for Another Location

Airport or City:

Trip Planner

Search our weather history database for the weather conditions in past years. The results will help you decide how hot, cold, wet, or windy it might be!

Date:

Astronomy

Jun. 14, 2013 Rise Set
Actual Time 5:14 AM CDT 9:03 PM CDT
Civil Twilight 4:34 AM CDT 9:42 PM CDT
Nautical Twilight 3:41 AM CDT 10:36 PM CDT
Astronomical Twilight 2:23 AM CDT 11:54 PM CDT
Moon 11:08 AM CDT (6/14) No Moon Set
Length of Visible Light 17h 08m
Length of Day
15h 49m
Waxing Crescent, 30% of the Moon is Illuminated
Jun 14
Waxing Crescent
Jun 16
First Quarter
Jun 23
Full
Jun 29
Last Quarter
Jul 8
New

Hourly Weather History & Observations

Time (CDT) Temp. Windchill Dew Point Humidity Pressure Visibility Wind Dir Wind Speed Gust Speed Precip Events Conditions
12:15 AM 47.3 °F - 43.7 °F 87% 30.14 in 10.0 mi Calm Calm - N/A   Clear
12:35 AM 46.4 °F - 43.7 °F 90% 30.14 in 10.0 mi Calm Calm - N/A   Clear
12:55 AM 46.6 °F - 43.9 °F 90% 30.13 in 10.0 mi Calm Calm - N/A   Clear
1:15 AM 46.2 °F - 43.7 °F 91% 30.13 in 10.0 mi Calm Calm - N/A   Clear
1:35 AM 45.7 °F - 44.1 °F 94% 30.13 in 10.0 mi Calm Calm - N/A   Clear
1:55 AM 44.4 °F - 43.3 °F 96% 30.14 in 10.0 mi Calm Calm - N/A   Clear
2:15 AM 45.7 °F - 44.1 °F 94% 30.13 in 10.0 mi Calm Calm - N/A   Clear
2:35 AM 45.0 °F - 44.1 °F 97% 30.13 in 10.0 mi Calm Calm - N/A   Clear
2:55 AM 45.5 °F - 44.4 °F 96% 30.13 in 10.0 mi Calm Calm - N/A   Clear
3:15 AM 45.1 °F - 43.9 °F 95% 30.13 in 10.0 mi Calm Calm - N/A   Clear
3:35 AM 44.8 °F - 44.1 °F 97% 30.14 in 10.0 mi Calm Calm - N/A   Clear
3:55 AM 45.0 °F - 44.6 °F 99% 30.14 in 10.0 mi Calm Calm - N/A   Clear
4:15 AM 42.4 °F - 41.9 °F 98% 30.12 in 4.0 mi Calm Calm - N/A   Clear
4:35 AM 46.2 °F 45.0 °F 45.0 °F 95% 30.12 in 10.0 mi ENE 3.5 mph - N/A   Clear
4:55 AM 46.6 °F - 44.8 °F 93% 30.12 in 10.0 mi ENE 5.8 mph - N/A   Clear
5:15 AM 47.1 °F - 44.8 °F 92% 30.13 in 10.0 mi NE 3.5 mph - N/A   Clear
5:35 AM 46.6 °F - 44.8 °F 93% 30.12 in 10.0 mi ENE 4.6 mph - N/A   Clear
5:55 AM 47.3 °F - 45.5 °F 93% 30.13 in 10.0 mi ENE 5.8 mph - N/A   Clear
6:15 AM 47.8 °F - 46.0 °F 93% 30.14 in 10.0 mi ENE 5.8 mph - N/A   Clear
6:35 AM 48.6 °F - 46.8 °F 93% 30.14 in 10.0 mi ENE 6.9 mph - N/A   Clear
6:55 AM 49.5 °F - 47.3 °F 92% 30.14 in 10.0 mi ENE 5.8 mph - N/A   Clear
7:15 AM 50.2 °F - 47.7 °F 91% 30.14 in 10.0 mi NE 6.9 mph - N/A   Clear
7:35 AM 51.1 °F - 47.3 °F 87% 30.14 in 10.0 mi ENE 6.9 mph - N/A   Clear
7:55 AM 51.8 °F - 47.1 °F 84% 30.15 in 10.0 mi NE 9.2 mph - N/A   Clear
8:15 AM 52.3 °F - 46.9 °F 82% 30.16 in 10.0 mi ENE 4.6 mph - N/A   Clear
8:35 AM 53.1 °F - 47.3 °F 81% 30.16 in 10.0 mi NNE 6.9 mph - N/A   Clear
8:55 AM 53.4 °F - 47.5 °F 80% 30.17 in 10.0 mi NE 6.9 mph - N/A   Clear
9:15 AM 54.5 °F - 47.8 °F 78% 30.16 in 10.0 mi NE 9.2 mph - N/A   Clear
9:35 AM 54.5 °F - 47.5 °F 77% 30.15 in 10.0 mi ENE 8.1 mph - N/A   Clear
9:55 AM 56.3 °F - 48.4 °F 75% 30.15 in 10.0 mi ENE 8.1 mph - N/A   Clear
10:15 AM 55.8 °F - 47.5 °F 74% 30.14 in 10.0 mi NE 8.1 mph - N/A   Clear
10:35 AM 56.3 °F - 46.8 °F 70% 30.13 in 10.0 mi ENE 10.4 mph - N/A   Clear
10:55 AM 56.3 °F - 46.6 °F 70% 30.12 in 10.0 mi ENE 10.4 mph 18.4 mph N/A   Clear
11:15 AM 57.7 °F - 46.9 °F 67% 30.12 in 10.0 mi ENE 10.4 mph - N/A   Clear
11:35 AM 57.6 °F - 46.6 °F 67% 30.11 in 10.0 mi ENE 10.4 mph 16.1 mph N/A   Clear
11:55 AM 57.7 °F - 46.6 °F 66% 30.10 in 10.0 mi ENE 11.5 mph 17.3 mph N/A   Clear
12:15 PM 57.7 °F - 46.2 °F 65% 30.10 in 10.0 mi NE 9.2 mph - N/A   Clear
12:35 PM 57.9 °F - 46.0 °F 65% 30.10 in 10.0 mi ENE 10.4 mph - N/A   Clear
12:55 PM 59.4 °F - 45.7 °F 61% 30.09 in 10.0 mi East 15.0 mph - N/A   Clear
1:15 PM 55.6 °F - 44.6 °F 67% 30.09 in 10.0 mi ENE 12.7 mph - N/A   Clear
1:35 PM 57.7 °F - 45.3 °F 63% 30.08 in 10.0 mi NE 11.5 mph - N/A   Clear
1:55 PM 55.9 °F - 44.4 °F 65% 30.08 in 10.0 mi ENE 10.4 mph 17.3 mph N/A   Clear
2:15 PM 53.6 °F - 43.3 °F 68% 30.07 in 10.0 mi NE 8.1 mph - N/A   Clear
2:35 PM 53.8 °F - 43.2 °F 67% 30.05 in 10.0 mi ENE 9.2 mph - N/A   Clear
2:55 PM 54.7 °F - 43.2 °F 65% 30.05 in 10.0 mi NE 9.2 mph - N/A   Clear
3:15 PM 54.9 °F - 43.7 °F 66% 30.04 in 10.0 mi NE 10.4 mph - N/A   Clear
3:35 PM 55.2 °F - 43.9 °F 66% 30.02 in 10.0 mi NE 10.4 mph - N/A   Clear
3:55 PM 52.0 °F - 41.4 °F 67% 30.03 in 10.0 mi NE 9.2 mph - N/A   Scattered Clouds
4:15 PM 54.7 °F - 42.8 °F 64% 30.00 in 10.0 mi ENE 11.5 mph 17.3 mph N/A   Scattered Clouds
4:35 PM 52.9 °F - 42.4 °F 68% 30.03 in 10.0 mi NNE 6.9 mph 12.7 mph N/A   Clear
4:55 PM 52.2 °F - 42.1 °F 69% 30.04 in 10.0 mi ENE 9.2 mph - N/A   Clear
5:15 PM 52.9 °F - 42.8 °F 69% 30.04 in 10.0 mi NE 12.7 mph 18.4 mph N/A   Scattered Clouds
5:35 PM 51.8 °F - 42.3 °F 70% 30.03 in 10.0 mi ENE 11.5 mph 19.6 mph N/A   Overcast
5:55 PM 54.0 °F - 43.2 °F 67% 30.02 in 10.0 mi ENE 13.8 mph 23.0 mph N/A   Overcast
6:15 PM 52.5 °F - 42.8 °F 70% 30.02 in 10.0 mi ENE 9.2 mph 19.6 mph N/A   Mostly Cloudy
6:35 PM 52.3 °F - 42.3 °F 69% 29.99 in 10.0 mi East 11.5 mph - N/A   Scattered Clouds
6:55 PM 51.4 °F - 42.3 °F 71% 29.99 in 10.0 mi ENE 8.1 mph - N/A   Clear
7:15 PM 49.1 °F - 42.4 °F 78% 30.01 in 10.0 mi NE 10.4 mph - N/A   Scattered Clouds
7:35 PM 48.2 °F - 41.5 °F 78% 30.00 in 10.0 mi NE 9.2 mph - N/A   Overcast
7:55 PM 47.8 °F - 41.7 °F 79% 30.00 in 10.0 mi ENE 9.2 mph - N/A   Overcast
8:15 PM 48.2 °F - 41.9 °F 79% 30.00 in 10.0 mi ENE 10.4 mph - N/A   Overcast
8:35 PM 49.8 °F - 41.0 °F 72% 29.99 in 10.0 mi ENE 12.7 mph - N/A   Overcast
8:55 PM 49.1 °F - 39.6 °F 70% 29.98 in 10.0 mi ENE 9.2 mph - N/A   Overcast
9:15 PM 47.3 °F - 39.7 °F 75% 29.98 in 10.0 mi ENE 6.9 mph - N/A   Mostly Cloudy
9:35 PM 46.6 °F - 39.7 °F 77% 29.98 in 10.0 mi ENE 8.1 mph - N/A   Mostly Cloudy
9:55 PM 46.0 °F 43.1 °F 40.3 °F 80% 29.99 in 10.0 mi NE 5.8 mph - N/A   Scattered Clouds
10:15 PM 45.7 °F 41.0 °F 39.2 °F 78% 29.99 in 10.0 mi ENE 9.2 mph - N/A   Mostly Cloudy
10:35 PM 45.5 °F 41.3 °F 38.7 °F 77% 30.00 in 10.0 mi ENE 8.1 mph - N/A   Overcast
10:55 PM 45.9 °F 43.6 °F 38.3 °F 75% 29.99 in 10.0 mi East 4.6 mph - N/A   Mostly Cloudy
11:15 PM 46.8 °F - 37.4 °F 70% 29.99 in 10.0 mi East 6.9 mph - N/A   Mostly Cloudy
11:35 PM 47.1 °F - 37.8 °F 70% 29.97 in 10.0 mi East 5.8 mph - N/A   Overcast
11:55 PM 46.8 °F - 37.6 °F 70% 29.95 in 10.0 mi East 8.1 mph - N/A   Overcast